createdAt,value
2018-11-29T00:00:33.499Z,1.70
2018-11-29T00:03:02.008Z,1.70
2018-11-29T00:05:30.445Z,1.70
2018-11-29T00:07:58.884Z,1.70
2018-11-29T00:10:27.372Z,1.70
2018-11-29T00:12:55.834Z,1.70
2018-11-29T00:15:24.303Z,1.60
2018-11-29T00:17:52.809Z,1.60
2018-11-29T00:20:21.395Z,1.60
2018-11-29T00:22:50.528Z,1.60
2018-11-29T00:25:19.537Z,1.60
2018-11-29T00:27:48.310Z,1.60
2018-11-29T00:30:20.663Z,1.60
2018-11-29T00:32:49.439Z,1.60
2018-11-29T00:35:18.267Z,1.60
2018-11-29T00:37:46.906Z,1.60
2018-11-29T00:40:20.090Z,1.60
2018-11-29T00:42:48.582Z,1.50
2018-11-29T00:45:19.086Z,1.50
2018-11-29T00:47:47.993Z,1.40
2018-11-29T00:50:17.043Z,1.40
2018-11-29T00:52:46.274Z,1.50
2018-11-29T00:55:16.666Z,1.50
2018-11-29T00:57:45.110Z,1.50
2018-11-29T01:00:17.487Z,1.50
2018-11-29T01:02:45.978Z,1.50
2018-11-29T01:05:14.381Z,1.50
2018-11-29T01:07:42.886Z,1.50
2018-11-29T01:10:13.145Z,1.50
2018-11-29T01:12:41.708Z,1.50
2018-11-29T01:15:13.078Z,1.50
2018-11-29T01:17:41.542Z,1.50
2018-11-29T01:20:11.116Z,1.50
2018-11-29T01:22:39.624Z,1.50
2018-11-29T01:25:09.497Z,1.50
2018-11-29T01:27:37.979Z,1.40
2018-11-29T01:30:14.926Z,1.40
2018-11-29T01:32:43.403Z,1.50
2018-11-29T01:35:12.634Z,1.50
2018-11-29T01:37:41.111Z,1.50
2018-11-29T01:40:25.747Z,1.50
2018-11-29T01:42:55.236Z,1.50
2018-11-29T01:45:23.716Z,1.50
2018-11-29T01:47:52.199Z,1.50
2018-11-29T01:50:20.747Z,1.50
2018-11-29T01:52:49.212Z,1.50
2018-11-29T01:55:17.672Z,1.60
2018-11-29T01:57:46.223Z,1.50
2018-11-29T02:00:15.626Z,1.50
2018-11-29T02:02:44.967Z,1.60
2018-11-29T02:05:13.485Z,1.60
2018-11-29T02:07:41.946Z,1.60
2018-11-29T02:10:17.591Z,1.50
2018-11-29T02:12:46.079Z,1.60
2018-11-29T02:15:14.555Z,1.60
2018-11-29T02:17:43.056Z,1.60
2018-11-29T02:20:13.107Z,1.70
2018-11-29T02:22:41.534Z,1.70
2018-11-29T02:25:10.054Z,1.70
2018-11-29T02:27:38.495Z,1.60
2018-11-29T02:30:11.112Z,1.60
2018-11-29T02:32:39.557Z,1.60
2018-11-29T02:35:08.011Z,1.60
2018-11-29T02:37:36.491Z,1.70
2018-11-29T02:40:06.271Z,1.70
2018-11-29T02:42:34.848Z,1.70
2018-11-29T02:45:03.331Z,1.70
2018-11-29T02:47:31.738Z,1.70
2018-11-29T02:50:00.163Z,1.70
2018-11-29T02:52:29.248Z,1.70
2018-11-29T02:54:57.868Z,1.70
2018-11-29T02:57:26.263Z,1.70
2018-11-29T02:59:54.730Z,1.70
2018-11-29T03:02:23.155Z,1.80
2018-11-29T03:04:51.586Z,1.80
2018-11-29T03:07:20.075Z,1.80
2018-11-29T03:09:48.508Z,1.80
2018-11-29T03:12:16.959Z,1.80
2018-11-29T03:14:45.455Z,1.80
2018-11-29T03:17:13.880Z,1.80
2018-11-29T03:19:42.315Z,1.80
2018-11-29T03:22:10.786Z,1.70
2018-11-29T03:24:39.201Z,1.70
2018-11-29T03:27:07.646Z,1.70
2018-11-29T03:29:36.103Z,1.80
2018-11-29T03:32:04.616Z,1.80
2018-11-29T03:34:33.051Z,1.80
2018-11-29T03:37:01.514Z,1.80
2018-11-29T03:39:29.959Z,1.80
2018-11-29T03:41:58.355Z,1.90
2018-11-29T03:44:26.895Z,1.90
2018-11-29T03:46:55.345Z,1.90
2018-11-29T03:49:23.758Z,1.90
2018-11-29T03:51:52.260Z,1.90
2018-11-29T03:54:20.739Z,1.90
2018-11-29T03:56:49.190Z,1.90
2018-11-29T03:59:17.679Z,2.00
2018-11-29T04:01:46.110Z,2.00
2018-11-29T04:04:14.540Z,2.00
2018-11-29T04:06:43.076Z,2.00
2018-11-29T04:09:11.521Z,2.00
2018-11-29T04:11:40.006Z,2.00
2018-11-29T04:14:08.475Z,2.00
2018-11-29T04:16:36.960Z,1.90
2018-11-29T04:19:05.747Z,1.90
2018-11-29T04:21:34.284Z,1.90
2018-11-29T04:24:02.718Z,1.80
2018-11-29T04:26:31.725Z,1.80
2018-11-29T04:29:00.264Z,1.80
2018-11-29T04:31:28.809Z,1.80
2018-11-29T04:33:57.263Z,1.70
2018-11-29T04:36:25.768Z,1.70
2018-11-29T04:38:54.433Z,1.70
2018-11-29T04:41:23.108Z,1.70
2018-11-29T04:43:51.856Z,1.70
2018-11-29T04:46:51.558Z,1.60
2018-11-29T04:49:20.089Z,1.60
2018-11-29T04:51:48.637Z,1.60
2018-11-29T04:54:17.162Z,1.60
2018-11-29T04:56:45.680Z,1.60
2018-11-29T04:59:14.125Z,1.60
2018-11-29T05:01:42.639Z,1.50
2018-11-29T05:04:11.211Z,1.50
2018-11-29T05:06:39.691Z,1.50
2018-11-29T05:09:09.887Z,1.50
2018-11-29T05:11:38.775Z,1.50
2018-11-29T05:14:07.641Z,1.50
2018-11-29T05:16:36.114Z,1.50
2018-11-29T05:19:04.815Z,1.50
2018-11-29T05:21:33.324Z,1.60
2018-11-29T05:24:02.422Z,1.60
2018-11-29T05:26:30.991Z,1.60
2018-11-29T05:28:59.491Z,1.60
2018-11-29T05:31:27.983Z,1.60
2018-11-29T05:33:56.560Z,1.60
2018-11-29T05:36:25.119Z,1.60
2018-11-29T05:38:53.567Z,1.60
2018-11-29T05:41:22.056Z,1.60
2018-11-29T05:43:50.500Z,1.60
2018-11-29T05:46:18.966Z,1.60
2018-11-29T05:48:47.461Z,1.60
2018-11-29T05:51:15.891Z,1.60
2018-11-29T05:53:44.346Z,1.60
2018-11-29T05:56:12.827Z,1.60
2018-11-29T05:58:41.296Z,1.70
2018-11-29T06:01:15.316Z,1.70
2018-11-29T06:03:43.779Z,1.70
2018-11-29T06:06:12.220Z,1.70
2018-11-29T06:08:40.771Z,1.70
2018-11-29T06:11:09.236Z,1.70
2018-11-29T06:13:37.679Z,1.90
2018-11-29T06:16:06.283Z,1.80
2018-11-29T06:18:34.769Z,1.80
2018-11-29T06:21:03.210Z,1.70
2018-11-29T06:23:32.671Z,1.70
2018-11-29T06:26:01.154Z,1.80
2018-11-29T06:28:29.596Z,1.80
2018-11-29T06:30:58.119Z,1.60
2018-11-29T06:33:26.571Z,1.80
2018-11-29T06:35:55.007Z,1.80
2018-11-29T06:38:23.491Z,1.80
2018-11-29T06:40:51.950Z,1.80
2018-11-29T06:43:20.377Z,1.80
2018-11-29T06:45:48.906Z,1.80
2018-11-29T06:48:17.399Z,1.90
2018-11-29T06:50:45.834Z,1.90
2018-11-29T06:53:19.851Z,1.90
2018-11-29T06:55:49.483Z,1.90
2018-11-29T06:58:17.899Z,1.90
2018-11-29T07:00:46.504Z,1.90
2018-11-29T07:03:14.942Z,1.90
2018-11-29T07:05:43.550Z,1.90
2018-11-29T07:08:12.030Z,1.90
2018-11-29T07:10:40.483Z,2.00
2018-11-29T07:13:08.950Z,2.00
2018-11-29T07:15:37.476Z,2.00
2018-11-29T07:18:06.108Z,2.00
2018-11-29T07:20:34.742Z,2.10
2018-11-29T07:23:03.204Z,2.10
2018-11-29T07:25:31.690Z,2.10
2018-11-29T07:28:00.198Z,2.10
2018-11-29T07:30:28.657Z,2.20
2018-11-29T07:32:57.164Z,2.20
2018-11-29T07:35:25.720Z,2.20
2018-11-29T07:37:54.228Z,2.20
2018-11-29T07:40:22.789Z,2.30
2018-11-29T07:42:53.703Z,2.40
2018-11-29T07:45:22.295Z,2.30
2018-11-29T07:47:50.734Z,2.40
2018-11-29T07:50:21.096Z,2.40
2018-11-29T07:52:49.610Z,2.40
2018-11-29T07:55:19.195Z,2.40
2018-11-29T07:57:48.835Z,2.40
2018-11-29T08:00:17.499Z,2.30
2018-11-29T08:02:45.987Z,2.40
2018-11-29T08:05:15.317Z,2.40
2018-11-29T08:07:47.451Z,2.40
2018-11-29T08:10:15.339Z,2.40
2018-11-29T08:12:43.843Z,2.40
2018-11-29T08:15:13.271Z,2.40
2018-11-29T08:17:41.816Z,2.40
2018-11-29T08:20:14.849Z,2.40
2018-11-29T08:22:50.158Z,2.50
2018-11-29T08:25:18.670Z,2.50
2018-11-29T08:27:47.224Z,2.50
2018-11-29T08:30:16.435Z,2.50
2018-11-29T08:32:44.887Z,2.50
2018-11-29T08:35:14.532Z,2.50
2018-11-29T08:37:47.022Z,2.50
2018-11-29T08:40:17.616Z,2.60
2018-11-29T08:42:46.105Z,2.60
2018-11-29T08:45:14.589Z,2.60
2018-11-29T08:47:43.149Z,2.60
2018-11-29T08:50:14.150Z,2.60
2018-11-29T08:52:43.607Z,2.60
2018-11-29T08:55:14.971Z,2.70
2018-11-29T08:57:43.515Z,2.70
2018-11-29T09:00:13.815Z,2.70
2018-11-29T09:02:42.302Z,2.70
2018-11-29T09:05:11.612Z,2.70
2018-11-29T09:07:40.121Z,2.70
2018-11-29T09:10:11.710Z,2.70
2018-11-29T09:12:40.215Z,2.70
2018-11-29T09:15:10.894Z,2.70
2018-11-29T09:17:39.654Z,2.80
2018-11-29T09:20:13.472Z,2.80
2018-11-29T09:22:42.106Z,2.80
2018-11-29T09:25:12.547Z,2.80
2018-11-29T09:27:41.008Z,2.80
2018-11-29T09:30:14.468Z,2.90
2018-11-29T09:32:43.483Z,2.90
2018-11-29T09:35:11.943Z,2.80
2018-11-29T09:37:40.467Z,2.80
2018-11-29T09:40:11.862Z,2.90
2018-11-29T09:42:40.494Z,2.90
2018-11-29T09:45:12.196Z,2.90
2018-11-29T09:47:40.643Z,3.00
2018-11-29T09:50:11.595Z,3.00
2018-11-29T09:52:40.395Z,3.10
2018-11-29T09:55:09.968Z,3.10
2018-11-29T09:57:38.460Z,3.20
2018-11-29T10:00:18.136Z,3.20
2018-11-29T10:02:50.410Z,3.20
2018-11-29T10:05:18.940Z,3.20
2018-11-29T10:07:47.395Z,3.20
2018-11-29T10:10:15.823Z,3.20
2018-11-29T10:12:44.303Z,3.30
2018-11-29T10:15:13.045Z,3.20
2018-11-29T10:17:41.472Z,3.20
2018-11-29T10:20:12.092Z,3.20
2018-11-29T10:22:41.351Z,3.20
2018-11-29T10:25:11.998Z,3.20
2018-11-29T10:27:40.823Z,3.30
2018-11-29T10:30:13.356Z,3.30
2018-11-29T10:32:41.780Z,3.30
2018-11-29T10:35:10.193Z,3.40
2018-11-29T10:37:38.723Z,3.40
2018-11-29T10:40:09.424Z,3.50
2018-11-29T10:42:37.915Z,3.50
2018-11-29T10:45:09.421Z,3.50
2018-11-29T10:47:37.883Z,3.50
2018-11-29T10:50:10.023Z,3.50
2018-11-29T10:52:38.486Z,3.50
2018-11-29T10:55:10.080Z,3.50
2018-11-29T10:57:38.742Z,3.60
2018-11-29T11:00:11.749Z,3.60
2018-11-29T11:02:44.439Z,3.50
2018-11-29T11:05:12.904Z,3.60
2018-11-29T11:07:41.328Z,3.60
2018-11-29T11:10:09.843Z,3.60
2018-11-29T11:12:38.258Z,3.60
2018-11-29T11:15:06.747Z,3.70
2018-11-29T11:17:36.119Z,3.70
2018-11-29T11:20:04.935Z,3.80
2018-11-29T11:22:33.363Z,3.80
2018-11-29T11:25:01.887Z,3.80
2018-11-29T11:27:30.339Z,3.90
2018-11-29T11:29:58.737Z,3.90
2018-11-29T11:32:27.210Z,3.90
2018-11-29T11:34:55.643Z,4.00
2018-11-29T11:37:24.238Z,4.00
2018-11-29T11:39:52.619Z,4.00
2018-11-29T11:42:21.043Z,4.00
2018-11-29T11:44:49.522Z,4.00
2018-11-29T11:47:18.067Z,4.00
2018-11-29T11:49:46.478Z,4.00
2018-11-29T11:52:14.958Z,4.00
2018-11-29T11:54:43.447Z,4.00
2018-11-29T11:57:11.876Z,4.00
2018-11-29T11:59:40.271Z,4.00
2018-11-29T12:02:08.780Z,4.00
2018-11-29T12:04:37.241Z,4.10
2018-11-29T12:07:05.939Z,4.10
2018-11-29T12:09:34.419Z,4.10
2018-11-29T12:12:02.912Z,4.10
2018-11-29T12:14:31.411Z,4.10
2018-11-29T12:16:59.855Z,4.10
2018-11-29T12:19:28.263Z,4.10
2018-11-29T12:21:56.733Z,4.10
2018-11-29T12:24:25.189Z,4.20
2018-11-29T12:26:53.663Z,4.10
2018-11-29T12:29:22.176Z,4.20
2018-11-29T12:31:50.603Z,4.20
2018-11-29T12:34:19.057Z,4.40
2018-11-29T12:36:47.515Z,4.30
2018-11-29T12:39:15.987Z,4.30
2018-11-29T12:41:44.448Z,4.30
2018-11-29T12:44:12.909Z,4.40
2018-11-29T12:46:42.265Z,4.40
2018-11-29T12:49:10.928Z,4.40
2018-11-29T12:51:39.401Z,4.40
2018-11-29T12:54:07.981Z,4.40
2018-11-29T12:56:37.370Z,4.40
2018-11-29T12:59:06.078Z,4.40
2018-11-29T13:01:35.634Z,4.50
2018-11-29T13:04:04.254Z,4.50
2018-11-29T13:06:32.718Z,4.50
2018-11-29T13:09:02.756Z,4.50
2018-11-29T13:11:31.451Z,4.50
2018-11-29T13:13:59.944Z,4.60
2018-11-29T13:16:28.420Z,4.60
2018-11-29T13:18:56.879Z,4.40
2018-11-29T13:21:25.334Z,4.60
2018-11-29T13:24:00.540Z,4.60
2018-11-29T13:26:28.928Z,4.70
2018-11-29T13:28:57.398Z,4.70
2018-11-29T13:31:25.924Z,4.70
2018-11-29T13:33:54.363Z,4.70
2018-11-29T13:36:22.787Z,4.70
2018-11-29T13:38:51.441Z,4.70
2018-11-29T13:41:19.991Z,4.70
2018-11-29T13:43:48.447Z,4.70
2018-11-29T13:46:16.960Z,4.70
2018-11-29T13:48:45.411Z,4.70
2018-11-29T13:51:13.840Z,4.70
2018-11-29T13:53:42.384Z,4.60
2018-11-29T13:56:11.212Z,4.60
2018-11-29T13:58:39.649Z,4.60
2018-11-29T14:01:08.169Z,4.60
2018-11-29T14:03:36.652Z,4.60
2018-11-29T14:06:05.147Z,4.60
2018-11-29T14:08:33.775Z,4.60
2018-11-29T14:11:02.727Z,4.50
2018-11-29T14:13:31.241Z,4.50
2018-11-29T14:15:59.716Z,4.50
2018-11-29T14:18:28.152Z,4.50
2018-11-29T14:20:56.616Z,4.50
2018-11-29T14:23:25.174Z,4.40
2018-11-29T14:25:53.674Z,4.40
2018-11-29T14:28:22.162Z,4.50
2018-11-29T14:30:50.707Z,4.70
2018-11-29T14:33:19.377Z,4.80
2018-11-29T14:35:47.838Z,4.90
2018-11-29T14:38:16.320Z,4.80
2018-11-29T14:40:44.746Z,4.70
2018-11-29T14:43:13.231Z,4.60
2018-11-29T14:45:41.767Z,4.60
2018-11-29T14:48:10.248Z,4.60
2018-11-29T14:50:42.202Z,4.60
2018-11-29T14:53:10.876Z,4.60
2018-11-29T14:55:39.832Z,4.60
2018-11-29T14:58:11.609Z,4.50
2018-11-29T15:00:40.148Z,4.50
2018-11-29T15:03:23.902Z,4.50
2018-11-29T15:05:52.346Z,4.50
2018-11-29T15:08:20.746Z,4.50
2018-11-29T15:10:49.216Z,4.50
2018-11-29T15:13:17.684Z,4.60
2018-11-29T15:15:46.136Z,4.60
2018-11-29T15:18:14.647Z,4.60
2018-11-29T15:20:44.641Z,4.60
2018-11-29T15:23:14.481Z,4.60
2018-11-29T15:25:42.932Z,4.60
2018-11-29T15:28:11.403Z,4.60
2018-11-29T15:30:39.946Z,4.60
2018-11-29T15:33:08.379Z,4.50
2018-11-29T15:35:36.830Z,4.50
2018-11-29T15:38:05.701Z,4.50
2018-11-29T15:40:34.270Z,4.50
2018-11-29T15:43:02.865Z,4.50
2018-11-29T15:45:31.390Z,4.40
2018-11-29T15:47:59.826Z,4.40
2018-11-29T15:50:28.487Z,4.40
2018-11-29T15:52:56.959Z,4.40
2018-11-29T15:55:25.407Z,4.40
2018-11-29T15:57:54.351Z,4.40
2018-11-29T16:00:26.567Z,4.30
2018-11-29T16:02:55.931Z,4.30
2018-11-29T16:05:24.478Z,4.30
2018-11-29T16:07:52.951Z,4.30
2018-11-29T16:10:23.545Z,4.30
2018-11-29T16:12:52.035Z,4.30
2018-11-29T16:15:21.178Z,4.30
2018-11-29T16:17:50.509Z,4.30
2018-11-29T16:20:23.381Z,4.20
2018-11-29T16:22:51.844Z,4.30
2018-11-29T16:25:20.323Z,4.30
2018-11-29T16:27:49.229Z,4.30
2018-11-29T16:30:34.560Z,4.30
2018-11-29T16:33:13.983Z,4.30
2018-11-29T16:35:43.598Z,4.30
2018-11-29T16:38:12.519Z,4.30
2018-11-29T16:40:41.369Z,4.30
2018-11-29T16:43:10.183Z,4.30
2018-11-29T16:45:39.284Z,4.30
2018-11-29T16:48:07.994Z,4.30
2018-11-29T16:50:37.544Z,4.30
2018-11-29T16:53:06.656Z,4.30
2018-11-29T16:55:35.940Z,4.30
2018-11-29T16:58:06.481Z,4.30
2018-11-29T17:00:35.360Z,4.40
2018-11-29T17:03:05.493Z,4.40
2018-11-29T17:05:34.143Z,4.40
2018-11-29T17:08:03.128Z,4.40
2018-11-29T17:10:31.713Z,4.50
2018-11-29T17:13:02.702Z,4.40
2018-11-29T17:15:31.315Z,4.40
2018-11-29T17:17:59.893Z,4.40
2018-11-29T17:20:28.476Z,4.40
2018-11-29T17:22:57.052Z,4.50
2018-11-29T17:25:25.525Z,4.40
2018-11-29T17:27:54.143Z,4.40
2018-11-29T17:30:24.616Z,4.40
2018-11-29T17:32:55.176Z,4.40
2018-11-29T17:35:28.070Z,4.40
2018-11-29T17:37:58.775Z,4.40
2018-11-29T17:40:28.051Z,4.40
2018-11-29T17:42:57.709Z,4.40
2018-11-29T17:45:28.087Z,4.40
2018-11-29T17:47:59.705Z,4.40
2018-11-29T17:50:31.809Z,4.50
2018-11-29T17:53:00.328Z,4.50
2018-11-29T17:55:29.573Z,4.50
2018-11-29T17:57:58.498Z,4.50
2018-11-29T18:00:30.506Z,4.60
2018-11-29T18:02:59.348Z,4.60
2018-11-29T18:05:28.389Z,4.60
2018-11-29T18:07:57.509Z,4.50
2018-11-29T18:10:28.918Z,4.50
2018-11-29T18:13:01.419Z,4.50
2018-11-29T18:15:32.307Z,4.50
2018-11-29T18:18:00.788Z,4.40
2018-11-29T18:20:29.518Z,4.50
2018-11-29T18:22:59.329Z,4.50
2018-11-29T18:25:28.413Z,4.40
2018-11-29T18:27:56.967Z,4.40
2018-11-29T18:30:25.621Z,4.40
2018-11-29T18:32:54.677Z,4.50
2018-11-29T18:35:23.243Z,4.40
2018-11-29T18:37:51.922Z,4.40
2018-11-29T18:40:21.368Z,4.50
2018-11-29T18:42:56.551Z,4.30
2018-11-29T18:45:25.259Z,4.50
2018-11-29T18:47:54.309Z,4.50
2018-11-29T18:50:23.775Z,4.50
2018-11-29T18:52:52.759Z,4.50
2018-11-29T18:55:24.647Z,4.50
2018-11-29T18:57:59.902Z,4.60
2018-11-29T19:00:32.726Z,4.60
2018-11-29T19:03:01.896Z,4.60
2018-11-29T19:05:30.745Z,4.60
2018-11-29T19:07:59.314Z,4.60
2018-11-29T19:10:27.846Z,4.70
2018-11-29T19:13:02.477Z,4.70
2018-11-29T19:15:31.176Z,4.80
2018-11-29T19:17:59.753Z,4.80
2018-11-29T19:20:29.071Z,4.90
2018-11-29T19:22:57.656Z,4.90
2018-11-29T19:25:26.166Z,5.00
2018-11-29T19:27:54.854Z,5.00
2018-11-29T19:30:26.577Z,5.00
2018-11-29T19:32:57.865Z,5.10
2018-11-29T19:35:26.475Z,5.10
2018-11-29T19:37:54.920Z,5.10
2018-11-29T19:40:23.524Z,5.20
2018-11-29T19:42:52.086Z,5.20
2018-11-29T19:45:21.206Z,5.30
2018-11-29T19:47:50.155Z,5.30
2018-11-29T19:50:20.748Z,5.30
2018-11-29T19:52:52.475Z,5.30
2018-11-29T19:55:25.619Z,5.30
2018-11-29T19:57:54.368Z,5.30
2018-11-29T20:00:22.994Z,5.30
2018-11-29T20:02:53.021Z,5.30
2018-11-29T20:05:22.095Z,5.20
2018-11-29T20:07:50.828Z,5.20
2018-11-29T20:10:19.815Z,5.20
2018-11-29T20:13:01.173Z,5.20
2018-11-29T20:15:29.745Z,5.20
2018-11-29T20:17:58.246Z,5.10
2018-11-29T20:20:26.727Z,5.10
2018-11-29T20:22:55.218Z,5.20
2018-11-29T20:25:24.960Z,5.20
2018-11-29T20:27:53.382Z,5.20
2018-11-29T20:30:22.991Z,5.20
2018-11-29T20:32:55.886Z,5.20
2018-11-29T20:35:24.840Z,5.20
2018-11-29T20:37:54.209Z,5.30
2018-11-29T20:40:31.096Z,5.30
2018-11-29T20:43:00.728Z,5.30
2018-11-29T20:45:33.125Z,5.30
2018-11-29T20:48:03.055Z,5.30
2018-11-29T20:50:31.599Z,5.30
2018-11-29T20:53:00.399Z,5.30
2018-11-29T20:55:30.169Z,5.40
2018-11-29T20:57:58.829Z,5.40
2018-11-29T21:00:27.647Z,5.40
2018-11-29T21:02:56.162Z,5.40
2018-11-29T21:05:25.217Z,5.40
2018-11-29T21:07:58.047Z,5.40
2018-11-29T21:10:26.731Z,5.40
2018-11-29T21:12:55.281Z,5.40
2018-11-29T21:15:23.838Z,5.40
2018-11-29T21:17:52.531Z,5.40
2018-11-29T21:20:21.635Z,5.40
2018-11-29T21:22:51.495Z,5.40
2018-11-29T21:25:22.131Z,5.40
2018-11-29T21:27:50.638Z,5.50
2018-11-29T21:30:19.150Z,5.50
2018-11-29T21:32:47.856Z,5.50
2018-11-29T21:35:19.384Z,5.50
2018-11-29T21:37:47.885Z,5.50
2018-11-29T21:40:18.930Z,5.60
2018-11-29T21:42:47.479Z,5.60
2018-11-29T21:45:15.976Z,5.60
2018-11-29T21:47:44.602Z,5.70
2018-11-29T21:50:13.110Z,5.70
2018-11-29T21:52:41.586Z,5.70
2018-11-29T21:55:10.044Z,5.70
2018-11-29T21:57:38.627Z,5.80
2018-11-29T22:00:12.432Z,5.80
2018-11-29T22:02:42.684Z,5.80
2018-11-29T22:05:11.184Z,5.80
2018-11-29T22:07:39.706Z,5.80
2018-11-29T22:10:08.192Z,5.80
2018-11-29T22:12:36.640Z,5.70
2018-11-29T22:15:06.171Z,5.70
2018-11-29T22:17:34.668Z,5.70
2018-11-29T22:20:03.203Z,5.70
2018-11-29T22:22:31.692Z,5.70
2018-11-29T22:25:00.211Z,5.70
2018-11-29T22:27:28.667Z,5.70
2018-11-29T22:29:57.147Z,5.70
2018-11-29T22:32:25.611Z,5.70
2018-11-29T22:34:54.189Z,5.70
2018-11-29T22:37:22.668Z,5.60
2018-11-29T22:39:51.216Z,5.60
2018-11-29T22:42:19.838Z,5.60
2018-11-29T22:44:48.443Z,5.60
2018-11-29T22:47:16.925Z,5.60
2018-11-29T22:49:45.404Z,5.60
2018-11-29T22:52:13.969Z,5.70
2018-11-29T22:54:42.453Z,5.70
2018-11-29T22:57:11.018Z,5.80
2018-11-29T22:59:39.480Z,5.80
2018-11-29T23:02:07.943Z,5.80
2018-11-29T23:04:36.414Z,5.90
2018-11-29T23:07:05.112Z,5.90
2018-11-29T23:09:33.565Z,5.90
2018-11-29T23:12:02.064Z,5.90
2018-11-29T23:14:30.546Z,5.90
2018-11-29T23:16:58.983Z,6.00
2018-11-29T23:19:27.476Z,6.00
2018-11-29T23:21:56.127Z,6.00
2018-11-29T23:24:31.274Z,6.10
2018-11-29T23:26:59.745Z,6.10
2018-11-29T23:29:28.219Z,6.10
2018-11-29T23:31:56.743Z,6.10
2018-11-29T23:34:25.191Z,6.10
2018-11-29T23:36:53.713Z,6.10
2018-11-29T23:39:22.297Z,6.10
2018-11-29T23:41:50.830Z,6.10
2018-11-29T23:44:19.297Z,6.10
2018-11-29T23:46:47.743Z,6.10
2018-11-29T23:49:16.232Z,6.10
2018-11-29T23:51:44.723Z,6.10
2018-11-29T23:54:19.708Z,6.10
2018-11-29T23:56:49.091Z,6.10
2018-11-29T23:59:17.564Z,6.10
